Cottonwood, ID (83522)

3:37 PM PDT on September 01, 2014 (GMT -0700)
ITD Concrete Section ID US | Change Station
CLOSE
Current Station
Personal Weather Station
Location: Cottonwood, ID
Elevation: 3401 ft
Nearby Weather Stations

Elev 3401 ft 46.00 °N, 116.33 °W | Updated 37 minutes ago

Clear
Clear
72 °F
Feels Like 76 °F
N
10
Wind Variable Wind from WSW
Gusts 13.0 mph

Today
High -- | Low -- °F
--% Chance of Precip.
Yesterday
High -- | Low -- °F
Precip. -- in
6:06 AM 7:23 PM
Waxing Crescent, 45% visible
Pressure 30.07 in
Visibility 10.0 miles
Clouds Clear
Heat Index 76 °F
Dew Point 40 °F
Humidity 31%
Rainfall 0.00 in
Snow Depth Not available.
UV 6 out of 12
Pollen 6.70 out of 12
PM2.5 Good
Flu Activity Not available.
METAR KGIC 012215Z AUTO 27007KT 10SM CLR 23/01 A3007 RMK AO1 T02280005

More Conditions Fewer Conditions

Pressure 30.07 in
Visibility 10.0 miles
Clouds Clear
Heat Index 76 °F
Dew Point 40 °F
Humidity 31%
Rainfall 0.00 in
Snow Depth Not available.
UV 6 out of 12
Pollen 6.70 out of 12
PM2.5 Good
Flu Activity Not available.
METAR KGIC 012215Z AUTO 27007KT 10SM CLR 23/01 A3007 RMK AO1 T02280005

More Conditions Fewer Conditions

10-Day Weather Forecast

Almanac

Astronomy

Sep. 01, 2014 Rise Set
Actual Time 6:06 AM PDT 7:23 PM PDT
Civil Twilight 5:35 AM PDT 7:54 PM PDT
Nautical Twilight 4:58 AM PDT 8:31 PM PDT
Astronomical Twilight 4:18 AM PDT 9:11 PM PDT
Moon 1:18 PM PDT 11:06 PM PDT
Length of Visible Light 14h 18m
Length of Day
13h 17m
Tomorrow will be 3m 7s shorter.
Waxing Crescent, 45% of the Moon is Illuminated
Today
Waxing Crescent
Sep 2
First Quarter
Sep 8
Full
Sep 15
Last Quarter
Sep 24
New

Today's Extremes

State Highs State Lows

Community

WunderPhotos

Upload Photos

1,749,423 photos uploaded!

Nearby

Air Quality

  Air Quality AQ Index Pollutant
Yesterday Good
PM2.5
Current Good
PM2.5
Monday Good
PM2.5
Tuesday Good
PM2.5

Snow Depth

Station Depth Elevation
Hemlock Butte 0 in 5810 ft
Moscow Mountain 0 in 4700 ft
West Branch 0 in 5560 ft
Brundage Reservoir 0 in 6300 ft
Bear Basin 0 in 5350 ft

Earthquake Activity

City Distance Mag. Time & Date
No recent earthquake activity has been reported nearby.
Minimum magnitude displayed is 2.5.

Coastal Water Temperatures

Place Temperature
No Stations Reporting

Nearby Weather Stations